Burlington, WA (98233)

7:33 PM PST on February 12, 2016 (GMT -0800)
Bow | | Change Station
CLOSE
Current Station
Personal Weather Station
Location: Bow, WA
Elevation: 85 ft
Nearby Weather Stations

Elev 85 ft 48.54 °N, 122.37 °W | Updated 51 seconds ago

Overcast
Overcast
47.8 °F
Feels Like 48 °F
N
0.0
Wind Variable Wind from ENE
Gusts 1.0 mph

Today
High -- | Low -- °F
--% Chance of Precip.
Yesterday
High -- | Low -- °F
Precip. -- in
Pressure 30.15 in
Visibility 10.0 miles
Clouds Scattered Clouds 2100 ft
Mostly Cloudy 3700 ft
Overcast 5500 ft
Windchill 48 °F
Dew Point 46 °F
Humidity 95%
Rainfall 0.85 in
Snow Depth Not available.
7:22 AM 5:25 PM
Waxing Crescent, 26% visible
METAR KNUW 130256Z 00000KT 10SM -RA SCT021 BKN037 OVC055 09/08 A3015 RMK AO2 RAB28 TSB28E48 SLP209 P0000 60000 T00940083 53003 $
Pressure 30.15 in
Visibility 10.0 miles
Clouds Scattered Clouds 2100 ft
Mostly Cloudy 3700 ft
Overcast 5500 ft
Windchill 48 °F
Dew Point 46 °F
Humidity 95%
Rainfall 0.85 in
Snow Depth Not available.
7:22 AM 5:25 PM
Waxing Crescent, 26% visible
METAR KNUW 130256Z 00000KT 10SM -RA SCT021 BKN037 OVC055 09/08 A3015 RMK AO2 RAB28 TSB28E48 SLP209 P0000 60000 T00940083 53003 $

10-Day Weather Forecast

Almanac

Astronomy

Feb. 12, 2016 Rise Set
Actual Time
Civil Twilight
Nautical Twilight
Astronomical Twilight
Moon
Length of Visible Light
Length of Day
Tomorrow will be .
, % of the Moon is Illuminated

Today's Extremes

State Highs State Lows

Community

WunderPhotos

Upload Photos

1,892,492 photos uploaded!

WunderBlog® & News

Nearby

Air Quality

  Air Quality AQ Index Pollutant
Not available.

Snow Depth

Station Depth Elevation

Earthquake Activity

City Distance Mag. Time & Date
Minimum magnitude displayed is 2.5.

Coastal Water Temperatures

Place Temperature

Stations

Nearby Weather Stations

Station Location Temp. Windchill Dew Point Humidity Wind Precip. Elev Updated Type
                   

Watches & Warnings

There are currently no watches in effect.